Time;durP1;ratioP1;P1;durP2;ratioP2;P2;SDS_P1;SDS_P2;PMS_P1;PMS_P2;Temp;Humidity;BMP_temperature;BMP_pressure;BME280_temperature;BME280_humidity;BME280_pressure;Samples;Min_cycle;Max_cycle;Signal;HPM_P1;HPM_P2
2022/01/11 00:00:10;;;;;;;10.27;5.55;;;;;;;7.13;88.55;99107.16;5050385;28;20020;-40
2022/01/11 00:02:39;;;;;;;8.38;5.00;;;;;;;7.30;88.09;99117.41;5050336;28;20492;-40
2022/01/11 00:05:05;;;;;;;10.63;5.63;;;;;;;7.04;88.78;99121.56;5050632;28;20021;-40
2022/01/11 00:07:33;;;;;;;8.35;5.05;;;;;;;6.76;89.09;99118.94;5050711;28;20595;-40
2022/01/11 00:10:00;;;;;;;8.30;5.55;;;;;;;6.95;88.69;99128.00;5050882;28;20051;-40
2022/01/11 00:12:26;;;;;;;9.07;5.45;;;;;;;7.08;88.07;99130.72;5050879;28;20147;-40
2022/01/11 00:14:51;;;;;;;9.10;4.82;;;;;;;6.61;88.96;99140.22;5053402;28;20025;-40
2022/01/11 00:17:17;;;;;;;8.43;5.22;;;;;;;6.84;88.14;99142.63;5054798;28;20021;-40
2022/01/11 00:19:45;;;;;;;8.68;4.75;;;;;;;6.74;87.91;99137.69;5054830;28;20032;-40
2022/01/11 00:22:17;;;;;;;8.43;5.00;;;;;;;6.85;88.70;99138.94;5054735;28;20485;-40
2022/01/11 00:24:42;;;;;;;9.43;4.95;;;;;;;6.92;87.47;99145.09;5054845;28;20024;-39
2022/01/11 00:27:09;;;;;;;8.68;5.00;;;;;;;6.95;87.44;99144.72;5054699;28;20017;-39
2022/01/11 00:29:36;;;;;;;8.00;4.80;;;;;;;6.90;86.74;99143.66;5054703;28;20021;-39
2022/01/11 00:32:07;;;;;;;9.57;5.60;;;;;;;7.09;86.64;99156.19;5054799;28;20029;-39
2022/01/11 00:34:50;;;;;;;7.20;4.22;;;;;;;6.83;86.41;99157.69;5054590;28;20021;-39
2022/01/11 00:37:16;;;;;;;8.35;5.20;;;;;;;6.85;87.33;99160.94;5054572;28;20033;-39
2022/01/11 00:39:42;;;;;;;7.85;4.93;;;;;;;6.61;88.51;99172.75;5054519;28;20024;-39
2022/01/11 00:42:11;;;;;;;9.88;5.70;;;;;;;6.81;87.92;99167.59;5054646;28;20029;-39
2022/01/11 00:44:36;;;;;;;9.52;5.65;;;;;;;6.74;87.42;99173.84;5036767;28;20426;-39
2022/01/11 00:47:02;;;;;;;9.65;5.18;;;;;;;7.18;87.08;99180.69;5054081;28;20029;-39
2022/01/11 00:49:27;;;;;;;8.73;5.35;;;;;;;6.95;87.18;99179.13;5054154;28;20104;-40
2022/01/11 00:51:53;;;;;;;7.88;4.85;;;;;;;6.71;87.47;99175.06;5054299;28;20408;-39
2022/01/11 00:54:18;;;;;;;10.02;5.55;;;;;;;6.75;88.32;99180.78;5053975;28;20021;-39
2022/01/11 00:56:43;;;;;;;9.27;5.60;;;;;;;6.73;87.32;99188.09;5054067;28;20033;-40
2022/01/11 00:59:09;;;;;;;7.95;5.00;;;;;;;6.76;87.21;99187.69;5054334;28;20032;-39
2022/01/11 01:01:37;;;;;;;10.60;5.30;;;;;;;6.87;86.99;99184.53;5054243;28;20032;-40
2022/01/11 01:04:05;;;;;;;7.65;4.88;;;;;;;6.99;85.51;99187.47;5054353;28;20017;-40
2022/01/11 01:06:30;;;;;;;9.43;5.15;;;;;;;7.05;86.79;99192.81;5053737;28;20049;-39
2022/01/11 01:08:56;;;;;;;7.97;5.35;;;;;;;6.87;86.34;99196.94;5054002;28;20036;-40
2022/01/11 01:11:21;;;;;;;8.25;4.80;;;;;;;6.57;86.39;99197.94;5054044;28;20021;-39
2022/01/11 01:13:47;;;;;;;8.27;5.30;;;;;;;6.76;86.12;99216.78;5053824;28;20125;-39
2022/01/11 01:16:12;;;;;;;7.68;4.47;;;;;;;6.37;86.56;99207.53;5053958;28;20052;-39
2022/01/11 01:18:38;;;;;;;8.68;4.93;;;;;;;6.33;87.98;99208.91;5052965;28;20354;-39
2022/01/11 01:21:03;;;;;;;7.45;4.38;;;;;;;6.45;87.54;99216.16;5053076;28;20017;-39
2022/01/11 01:23:29;;;;;;;7.53;4.50;;;;;;;6.40;87.67;99226.47;5053421;28;20048;-39
2022/01/11 01:25:54;;;;;;;9.20;5.25;;;;;;;6.59;86.66;99214.44;5052269;28;20025;-39
2022/01/11 01:28:20;;;;;;;8.07;4.60;;;;;;;6.37;86.57;99205.69;5053444;28;20104;-39
2022/01/11 01:30:46;;;;;;;6.88;4.80;;;;;;;6.43;86.25;99218.16;5053719;28;20078;-39
2022/01/11 01:33:12;;;;;;;7.43;4.75;;;;;;;6.38;85.95;99220.56;5053325;28;20021;-39
2022/01/11 01:35:42;;;;;;;8.07;4.82;;;;;;;6.26;86.79;99225.53;5035584;28;20082;-39
2022/01/11 01:38:08;;;;;;;7.28;4.78;;;;;;;6.38;86.56;99240.88;5053390;28;20488;-39
2022/01/11 01:40:41;;;;;;;6.78;4.53;;;;;;;6.50;85.21;99231.44;5053336;28;20021;-39
2022/01/11 01:43:08;;;;;;;9.45;5.30;;;;;;;6.50;85.35;99228.78;5053140;28;20029;-38
2022/01/11 01:45:34;;;;;;;7.00;4.90;;;;;;;6.44;85.10;99230.38;5051837;28;20024;-39
2022/01/11 01:47:59;;;;;;;6.32;3.90;;;;;;;6.32;86.15;99221.31;5053189;28;20021;-40
2022/01/11 01:50:26;;;;;;;7.40;4.47;;;;;;;6.05;86.80;99238.69;5052985;28;20457;-40
2022/01/11 01:52:51;;;;;;;7.55;4.72;;;;;;;5.94;88.25;99234.69;5053151;28;20027;-40
2022/01/11 01:55:17;;;;;;;7.60;4.78;;;;;;;6.18;86.71;99240.69;5053050;28;20025;-41
2022/01/11 01:57:42;;;;;;;8.00;4.20;;;;;;;6.27;86.32;99218.41;5052051;28;20028;-40
2022/01/11 02:00:11;;;;;;;9.50;4.90;;;;;;;6.31;86.27;99246.09;5051843;28;20025;-41
2022/01/11 02:02:40;;;;;;;7.07;4.85;;;;;;;6.02;88.02;99252.28;5051659;28;20090;-41
2022/01/11 02:05:06;;;;;;;6.67;4.20;;;;;;;6.04;86.61;99243.16;5052547;28;20061;-41
2022/01/11 02:07:33;;;;;;;8.55;5.57;;;;;;;5.99;88.45;99236.81;5052615;28;20051;-41
2022/01/11 02:10:01;;;;;;;8.25;5.30;;;;;;;5.69;89.21;99244.75;5052704;28;20135;-41
2022/01/11 02:12:27;;;;;;;8.05;5.35;;;;;;;5.79;89.19;99255.84;5052873;28;20075;-41
2022/01/11 02:14:52;;;;;;;9.50;5.45;;;;;;;5.92;88.74;99247.28;5052904;28;20036;-41
2022/01/11 02:17:18;;;;;;;8.25;5.18;;;;;;;6.09;87.81;99253.16;5052316;28;20029;-41
2022/01/11 02:19:43;;;;;;;9.15;5.63;;;;;;;6.00;87.61;99249.84;5052631;28;20029;-41
2022/01/11 02:22:09;;;;;;;8.45;5.35;;;;;;;5.84;88.32;99253.47;5052460;28;20029;-41
2022/01/11 02:24:34;;;;;;;8.35;5.43;;;;;;;5.76;89.22;99250.13;5052476;28;20524;-41
2022/01/11 02:27:00;;;;;;;9.68;5.63;;;;;;;5.68;88.88;99259.78;5052101;28;20401;-41
2022/01/11 02:29:26;;;;;;;9.52;5.50;;;;;;;5.67;88.86;99273.16;5052148;28;20305;-41
2022/01/11 02:31:52;;;;;;;9.85;5.82;;;;;;;5.92;87.96;99268.41;5034604;28;20441;-41
2022/01/11 02:34:17;;;;;;;10.45;5.75;;;;;;;5.91;87.34;99269.41;5052314;28;20056;-41
2022/01/11 02:36:43;;;;;;;8.15;5.03;;;;;;;5.66;88.21;99259.13;5051922;28;20017;-41
2022/01/11 02:39:08;;;;;;;7.60;4.93;;;;;;;5.52;88.31;99286.38;5051728;28;20029;-40
2022/01/11 02:41:34;;;;;;;9.82;5.60;;;;;;;5.34;89.48;99268.25;5052377;28;20017;-41
2022/01/11 02:43:59;;;;;;;9.65;5.28;;;;;;;5.61;89.88;99273.88;5052280;28;20035;-41
2022/01/11 02:46:25;;;;;;;8.45;5.25;;;;;;;6.02;86.61;99274.25;5051763;28;20032;-41
2022/01/11 02:48:52;;;;;;;10.23;5.38;;;;;;;5.82;87.83;99275.78;5052020;28;20090;-41
2022/01/11 02:51:18;;;;;;;8.35;5.10;;;;;;;5.65;87.80;99268.06;5052259;28;20056;-41
2022/01/11 02:53:45;;;;;;;9.65;5.40;;;;;;;5.46;88.67;99273.88;5051740;28;20417;-40
2022/01/11 02:56:11;;;;;;;8.23;5.13;;;;;;;5.48;88.26;99275.34;5051874;28;20025;-41
2022/01/11 02:58:36;;;;;;;10.43;5.20;;;;;;;5.47;88.78;99272.88;5051568;28;20082;-41
2022/01/11 03:01:02;;;;;;;11.20;5.53;;;;;;;5.59;88.09;99286.44;5051590;28;20032;-41
2022/01/11 03:03:28;;;;;;;7.85;5.05;;;;;;;5.74;87.23;99276.69;5051720;28;20060;-40
2022/01/11 03:05:55;;;;;;;9.15;4.05;;;;;;;5.68;85.65;99272.16;5051538;28;20029;-40
2022/01/11 03:08:21;;;;;;;6.78;3.92;;;;;;;5.28;87.21;99282.16;5051192;28;20064;-40
2022/01/11 03:10:47;;;;;;;7.07;4.25;;;;;;;5.44;86.74;99286.44;5051294;28;20075;-41
2022/01/11 03:13:12;;;;;;;6.82;4.50;;;;;;;5.49;86.96;99274.34;5051761;28;20032;-40
2022/01/11 03:15:38;;;;;;;5.53;3.55;;;;;;;5.27;86.60;99285.78;5051262;28;20118;-40
2022/01/11 03:18:05;;;;;;;5.88;3.45;;;;;;;5.16;87.42;99286.22;5051409;28;20021;-40
2022/01/11 03:20:31;;;;;;;6.38;3.88;;;;;;;5.14;87.41;99288.22;5050006;28;20025;-40
2022/01/11 03:22:56;;;;;;;6.00;3.80;;;;;;;5.23;87.09;99276.59;5051581;28;20068;-41
2022/01/11 03:25:23;;;;;;;6.68;4.32;;;;;;;5.16;88.53;99297.63;5051420;28;20481;-41
2022/01/11 03:27:49;;;;;;;7.50;4.18;;;;;;;5.24;87.14;99286.16;5051541;28;20029;-40
2022/01/11 03:30:14;;;;;;;6.35;3.65;;;;;;;5.05;88.10;99298.84;5051548;28;20444;-41
2022/01/11 03:32:40;;;;;;;6.22;3.83;;;;;;;5.19;88.32;99297.22;5051320;28;20132;-41
2022/01/11 03:35:06;;;;;;;5.90;3.75;;;;;;;5.44;86.25;99305.72;5051345;28;20024;-41
2022/01/11 03:37:31;;;;;;;5.47;3.50;;;;;;;5.20;87.58;99293.63;5051320;28;20021;-40
2022/01/11 03:39:57;;;;;;;6.28;3.72;;;;;;;4.93;88.51;99302.94;5051188;28;20025;-41
2022/01/11 03:42:22;;;;;;;5.95;3.58;;;;;;;5.27;86.59;99307.72;5051041;28;20032;-40
2022/01/11 03:44:49;;;;;;;5.15;3.65;;;;;;;5.26;85.80;99319.28;5051231;28;20028;-40
2022/01/11 03:47:15;;;;;;;6.70;3.88;;;;;;;5.40;86.19;99314.19;5051659;28;20086;-41
2022/01/11 03:49:40;;;;;;;6.63;3.88;;;;;;;5.39;85.50;99315.22;5053605;28;20024;-41
2022/01/11 03:52:06;;;;;;;5.47;3.50;;;;;;;5.56;84.78;99319.31;5055367;28;20021;-41
2022/01/11 03:54:44;;;;;;;5.18;3.20;;;;;;;5.43;85.83;99322.56;5055357;28;20041;-41
2022/01/11 03:57:09;;;;;;;5.93;3.55;;;;;;;5.26;86.83;99336.94;5055430;28;20100;-41
2022/01/11 03:59:35;;;;;;;5.60;3.47;;;;;;;5.07;86.64;99331.16;5055218;28;20366;-40
2022/01/11 04:02:00;;;;;;;4.93;3.50;;;;;;;5.29;86.53;99329.47;5055151;28;20028;-41
2022/01/11 04:04:26;;;;;;;5.85;3.33;;;;;;;5.23;86.19;99338.09;5055162;28;20032;-40
2022/01/11 04:06:51;;;;;;;5.50;3.65;;;;;;;5.31;86.43;99328.47;5054878;28;20420;-41
2022/01/11 04:09:17;;;;;;;5.40;3.22;;;;;;;5.31;85.22;99331.09;5054935;28;20021;-41
2022/01/11 04:11:42;;;;;;;4.93;3.40;;;;;;;5.42;85.82;99349.13;5054977;28;20416;-41
2022/01/11 04:14:08;;;;;;;8.02;4.30;;;;;;;5.73;89.73;99333.16;5055021;28;20032;-41
2022/01/11 04:16:33;;;;;;;7.05;4.20;;;;;;;6.23;89.11;99347.44;5054892;28;20060;-41
2022/01/11 04:18:59;;;;;;;6.10;3.75;;;;;;;5.90;83.87;99346.97;5054924;28;20090;-41
2022/01/11 04:21:24;;;;;;;5.18;3.45;;;;;;;5.55;83.94;99353.81;5054817;28;20029;-41
2022/01/11 04:23:50;;;;;;;6.25;4.18;;;;;;;5.67;85.41;99352.34;5054985;28;20080;-41
2022/01/11 04:26:15;;;;;;;6.38;4.00;;;;;;;5.81;84.73;99354.19;5054059;28;20029;-41
2022/01/11 04:28:41;;;;;;;6.95;4.18;;;;;;;5.69;83.78;99350.34;5054419;28;20503;-41
2022/01/11 04:31:06;;;;;;;7.85;4.60;;;;;;;5.56;84.92;99364.19;5053840;28;20017;-41
2022/01/11 04:33:32;;;;;;;7.03;4.68;;;;;;;5.75;84.01;99365.50;5054679;28;20025;-41
2022/01/11 04:35:58;;;;;;;6.82;4.40;;;;;;;5.53;84.15;99355.81;5053787;28;20025;-40
2022/01/11 04:38:26;;;;;;;6.95;4.25;;;;;;;5.38;83.96;99364.50;5053727;28;20036;-40
2022/01/11 04:40:51;;;;;;;7.63;4.40;;;;;;;5.27;85.17;99365.78;5053539;28;20025;-40
2022/01/11 04:43:17;;;;;;;6.28;4.00;;;;;;;5.20;85.34;99356.94;5053797;28;20036;-41
2022/01/11 04:45:42;;;;;;;6.57;4.35;;;;;;;5.23;85.16;99371.56;5053164;28;20610;-40
2022/01/11 04:48:08;;;;;;;6.55;4.25;;;;;;;5.34;85.23;99368.50;5052127;28;20039;-41
2022/01/11 04:50:33;;;;;;;6.07;4.07;;;;;;;5.23;85.06;99371.56;5052095;28;20115;-40
2022/01/11 04:52:59;;;;;;;6.22;3.90;;;;;;;5.34;83.96;99372.97;5052152;28;20150;-40
2022/01/11 04:55:25;;;;;;;5.80;3.75;;;;;;;5.27;84.44;99349.09;5052385;28;20059;-40
2022/01/11 04:57:50;;;;;;;6.00;3.80;;;;;;;5.29;84.80;99373.50;5051003;28;20085;-40
2022/01/11 05:00:17;;;;;;;4.68;3.00;;;;;;;5.26;83.56;99379.16;5052607;28;20021;-40
2022/01/11 05:02:42;;;;;;;5.18;3.42;;;;;;;5.11;84.14;99378.28;5053236;28;20021;-39
2022/01/11 05:05:08;;;;;;;5.65;3.10;;;;;;;5.14;84.24;99393.72;5053309;28;20031;-39
2022/01/11 05:07:33;;;;;;;4.55;3.00;;;;;;;5.08;84.49;99395.25;5051254;28;20471;-39
2022/01/11 05:09:59;;;;;;;4.70;3.13;;;;;;;5.25;83.47;99395.94;5052644;28;20420;-39
2022/01/11 05:12:24;;;;;;;3.42;2.70;;;;;;;4.98;83.25;99395.50;5052304;28;20099;-39
2022/01/11 05:14:50;;;;;;;2.92;2.08;;;;;;;4.75;84.10;99397.31;5052542;28;20040;-38
2022/01/11 05:17:15;;;;;;;5.05;3.20;;;;;;;4.68;85.20;99411.19;5053106;28;20032;-39
2022/01/11 05:19:41;;;;;;;5.10;3.10;;;;;;;4.73;84.85;99401.94;5053065;28;20397;-39
2022/01/11 05:22:06;;;;;;;4.82;2.97;;;;;;;4.72;84.92;99408.19;5053092;28;20151;-39
2022/01/11 05:24:32;;;;;;;5.40;3.35;;;;;;;4.82;84.79;99414.09;5052458;28;20025;-39
2022/01/11 05:26:57;;;;;;;5.07;3.40;;;;;;;4.86;84.60;99412.72;5052572;28;20086;-38
2022/01/11 05:29:23;;;;;;;6.95;3.70;;;;;;;4.60;85.51;99411.22;5052150;28;20508;-39
2022/01/11 05:31:48;;;;;;;5.30;3.40;;;;;;;4.56;85.52;99431.00;5052314;28;20025;-39
2022/01/11 05:34:13;;;;;;;5.38;3.40;;;;;;;4.53;85.70;99417.34;5052598;28;20033;-39
2022/01/11 05:36:39;;;;;;;5.50;3.67;;;;;;;4.87;85.20;99415.19;5052532;28;20476;-40
2022/01/11 05:39:04;;;;;;;6.43;3.78;;;;;;;5.12;85.42;99422.09;5052616;28;20025;-39
2022/01/11 05:41:31;;;;;;;7.43;3.90;;;;;;;5.00;84.70;99427.78;5052729;28;20013;-39
2022/01/11 05:43:56;;;;;;;6.32;3.47;;;;;;;4.85;84.34;99432.97;5051958;28;20020;-40
2022/01/11 05:46:22;;;;;;;4.43;3.13;;;;;;;4.84;84.14;99446.38;5052133;28;20044;-39
2022/01/11 05:48:47;;;;;;;5.63;3.60;;;;;;;4.87;84.57;99448.63;5052061;28;20105;-39
2022/01/11 05:51:14;;;;;;;6.00;3.80;;;;;;;4.78;83.98;99453.16;5051885;28;20021;-39
2022/01/11 05:53:40;;;;;;;6.45;3.30;;;;;;;4.55;84.38;99461.00;5051370;28;20092;-39
2022/01/11 05:56:05;;;;;;;6.07;3.78;;;;;;;4.42;86.12;99463.38;5051642;28;20017;-39
2022/01/11 05:58:31;;;;;;;6.93;3.95;;;;;;;4.88;84.93;99463.47;5051795;28;20020;-40
2022/01/11 06:00:56;;;;;;;7.53;4.00;;;;;;;4.74;85.07;99472.09;5047372;28;20257;-40
2022/01/11 06:03:22;;;;;;;8.52;4.40;;;;;;;4.86;85.06;99479.47;5052431;28;20032;-40
2022/01/11 06:05:47;;;;;;;6.85;4.13;;;;;;;5.01;83.64;99484.84;5047824;28;20032;-40
2022/01/11 06:08:16;;;;;;;6.15;3.88;;;;;;;4.82;83.67;99480.00;5050108;28;20471;-40
2022/01/11 06:10:43;;;;;;;7.05;4.32;;;;;;;4.64;84.78;99486.31;5044241;28;20496;-40
2022/01/11 06:13:08;;;;;;;7.32;4.45;;;;;;;4.93;84.29;99491.94;5047067;28;20032;-40
2022/01/11 06:15:34;;;;;;;7.28;4.72;;;;;;;4.82;84.18;99501.09;5052322;28;20021;-38
2022/01/11 06:17:59;;;;;;;7.93;4.75;;;;;;;4.85;83.71;99493.63;5052069;28;20028;-40
2022/01/11 06:20:25;;;;;;;7.30;4.45;;;;;;;4.86;83.68;99494.47;5051880;28;20017;-40
2022/01/11 06:22:51;;;;;;;7.38;4.63;;;;;;;4.89;83.94;99497.59;5051608;28;20082;-40
2022/01/11 06:25:16;;;;;;;7.88;4.72;;;;;;;4.88;84.22;99514.38;5051780;28;20052;-40
2022/01/11 06:27:42;;;;;;;9.93;4.70;;;;;;;4.64;84.46;99502.13;5051532;28;20032;-40
2022/01/11 06:30:08;;;;;;;8.82;4.72;;;;;;;4.53;85.09;99512.22;5049625;28;20025;-40
2022/01/11 06:32:34;;;;;;;8.98;5.22;;;;;;;4.40;85.77;99520.66;5048240;28;20028;-40
2022/01/11 06:34:59;;;;;;;8.93;5.65;;;;;;;4.71;84.94;99536.53;5049609;28;20025;-39
2022/01/11 06:37:26;;;;;;;9.65;6.05;;;;;;;4.71;85.22;99526.00;5049399;28;20423;-39
2022/01/11 06:39:51;;;;;;;10.98;6.55;;;;;;;5.04;83.18;99523.22;5049285;28;20108;-39
2022/01/11 06:42:17;;;;;;;11.15;6.53;;;;;;;4.97;84.46;99536.28;5049815;28;20119;-40
2022/01/11 06:44:43;;;;;;;10.95;6.88;;;;;;;4.97;83.22;99546.84;5049443;28;20020;-39
2022/01/11 06:47:09;;;;;;;12.25;6.55;;;;;;;4.45;85.58;99550.78;5050032;28;20020;-39
2022/01/11 06:49:34;;;;;;;11.45;6.50;;;;;;;4.28;86.03;99546.53;5050788;28;20532;-40
2022/01/11 06:51:59;;;;;;;14.85;7.07;;;;;;;4.57;85.48;99546.00;5051449;28;20025;-40
2022/01/11 06:54:25;;;;;;;14.63;7.63;;;;;;;4.96;84.21;99555.72;5051026;28;20481;-40
2022/01/11 06:56:50;;;;;;;12.43;7.03;;;;;;;4.75;86.40;99574.75;5051208;28;20025;-40
2022/01/11 06:59:16;;;;;;;13.93;7.18;;;;;;;4.76;85.73;99570.28;5050927;28;20033;-39
2022/01/11 07:01:41;;;;;;;14.73;7.50;;;;;;;4.58;86.56;99567.91;5050874;28;20048;-39
2022/01/11 07:04:07;;;;;;;13.77;7.75;;;;;;;4.45;86.21;99565.78;5051220;28;20024;-40
2022/01/11 07:06:32;;;;;;;15.07;8.27;;;;;;;4.64;86.04;99570.66;5050859;28;20497;-40
2022/01/11 07:08:58;;;;;;;13.23;7.55;;;;;;;4.57;85.89;99577.63;5050912;28;20037;-40
2022/01/11 07:11:24;;;;;;;12.98;8.25;;;;;;;4.51;86.48;99578.28;5050714;28;20021;-40
2022/01/11 07:13:50;;;;;;;15.00;8.40;;;;;;;4.72;85.38;99577.72;5050811;28;20489;-40
2022/01/11 07:16:15;;;;;;;14.88;7.90;;;;;;;4.43;86.76;99587.00;5051205;28;20120;-40
2022/01/11 07:18:41;;;;;;;13.07;6.75;;;;;;;4.22;86.92;99584.91;5049839;28;20033;-40
2022/01/11 07:21:06;;;;;;;15.85;8.50;;;;;;;4.37;87.59;99592.16;5051173;28;20025;-40
2022/01/11 07:23:32;;;;;;;16.15;8.77;;;;;;;4.62;86.36;99593.72;5050030;28;20020;-40
2022/01/11 07:25:57;;;;;;;15.23;7.75;;;;;;;4.49;85.96;99598.69;5050889;28;20069;-40
2022/01/11 07:28:23;;;;;;;11.75;6.93;;;;;;;4.45;85.89;99597.41;5049368;28;20032;-42
2022/01/11 07:30:50;;;;;;;13.18;8.00;;;;;;;4.69;85.90;99604.44;5050241;28;20041;-39
2022/01/11 07:33:16;;;;;;;16.65;8.48;;;;;;;4.45;87.61;99613.19;5049606;28;20025;-39
2022/01/11 07:35:41;;;;;;;14.15;7.80;;;;;;;4.76;85.90;99613.31;5049939;28;20506;-39
2022/01/11 07:38:07;;;;;;;14.45;8.02;;;;;;;4.86;85.22;99624.50;5050253;28;20116;-39
2022/01/11 07:40:32;;;;;;;12.38;7.13;;;;;;;4.67;85.67;99627.50;5049424;28;20025;-39
2022/01/11 07:42:58;;;;;;;13.80;7.43;;;;;;;4.76;86.08;99623.03;5050510;28;20025;-39
2022/01/11 07:45:23;;;;;;;14.55;7.07;;;;;;;4.73;86.88;99618.94;5050573;28;20098;-39
2022/01/11 07:47:49;;;;;;;13.52;6.90;;;;;;;4.84;84.89;99641.47;5050592;28;20048;-39
2022/01/11 07:50:14;;;;;;;12.35;7.00;;;;;;;4.92;86.12;99638.00;5050478;28;20029;-39
2022/01/11 07:52:40;;;;;;;13.55;7.15;;;;;;;4.82;85.98;99643.47;5050373;28;20025;-39
2022/01/11 07:55:06;;;;;;;12.43;7.50;;;;;;;4.89;85.12;99647.06;5050499;28;20021;-39
2022/01/11 07:57:32;;;;;;;12.05;6.80;;;;;;;4.70;86.74;99646.47;5050681;28;20048;-39
2022/01/11 07:59:57;;;;;;;10.40;6.30;;;;;;;4.66;86.87;99647.78;5050417;28;20029;-40
2022/01/11 08:02:23;;;;;;;10.07;6.10;;;;;;;4.85;85.34;99651.84;5050406;28;20029;-41
2022/01/11 08:04:49;;;;;;;10.43;6.10;;;;;;;4.82;84.99;99651.38;5050431;28;20021;-39
2022/01/11 08:07:15;;;;;;;9.85;5.60;;;;;;;4.89;84.05;99665.50;5050066;28;20041;-40
2022/01/11 08:09:40;;;;;;;10.57;6.00;;;;;;;4.79;84.61;99667.53;5050426;28;20413;-40
2022/01/11 08:12:06;;;;;;;11.73;6.53;;;;;;;4.82;84.92;99662.75;5050121;28;20334;-39
2022/01/11 08:14:32;;;;;;;8.88;5.63;;;;;;;4.64;84.97;99672.66;5050231;28;20059;-40
2022/01/11 08:16:57;;;;;;;9.05;5.38;;;;;;;4.56;85.30;99672.66;5050111;28;20021;-39
2022/01/11 08:19:25;;;;;;;11.55;6.03;;;;;;;4.62;85.59;99670.16;5050099;28;20044;-40
2022/01/11 08:21:56;;;;;;;10.60;5.72;;;;;;;4.80;84.59;99677.91;5050288;28;20048;-39
2022/01/11 08:24:23;;;;;;;8.63;5.13;;;;;;;4.62;84.34;99672.81;5050051;28;20033;-39
2022/01/11 08:26:51;;;;;;;10.23;6.07;;;;;;;4.81;84.76;99684.81;5048946;28;20036;-39
2022/01/11 08:29:18;;;;;;;8.57;5.07;;;;;;;4.29;86.53;99680.72;5050345;28;20044;-39
2022/01/11 08:31:45;;;;;;;9.90;5.63;;;;;;;4.56;86.29;99681.38;5049986;28;20036;-39
2022/01/11 08:34:13;;;;;;;10.80;5.80;;;;;;;4.82;85.28;99688.28;5049955;28;20436;-39
2022/01/11 08:36:39;;;;;;;9.55;5.70;;;;;;;5.03;84.23;99682.47;5053248;28;20021;-40
2022/01/11 08:39:05;;;;;;;10.32;5.65;;;;;;;4.85;84.55;99690.56;5053978;28;20017;-39
2022/01/11 08:41:30;;;;;;;10.25;5.57;;;;;;;4.90;84.51;99686.44;5053701;28;20017;-39
2022/01/11 08:43:55;;;;;;;9.50;5.75;;;;;;;4.90;84.78;99681.16;5053751;28;20032;-40
2022/01/11 08:46:21;;;;;;;10.43;5.72;;;;;;;4.61;85.26;99684.34;5053918;28;20485;-40
2022/01/11 08:48:46;;;;;;;10.13;5.93;;;;;;;4.57;85.65;99688.31;5053727;28;20029;-40
2022/01/11 08:51:12;;;;;;;9.77;5.70;;;;;;;4.55;85.31;99685.03;5053404;28;20032;-40
2022/01/11 08:53:37;;;;;;;9.02;5.45;;;;;;;4.87;84.96;99685.97;5053636;28;20017;-40
2022/01/11 08:56:05;;;;;;;7.20;5.03;;;;;;;4.74;85.27;99696.19;5053361;28;20409;-40
2022/01/11 08:58:30;;;;;;;8.32;5.07;;;;;;;4.73;84.87;99684.84;5053338;28;20087;-40
2022/01/11 09:00:56;;;;;;;7.97;4.97;;;;;;;4.94;83.36;99688.75;5053267;28;20017;-40
2022/01/11 09:03:23;;;;;;;7.63;5.00;;;;;;;4.85;83.27;99686.13;5053209;28;20032;-40
2022/01/11 09:05:50;;;;;;;8.43;5.15;;;;;;;4.81;84.63;99698.00;5053201;28;20040;-40
2022/01/11 09:08:15;;;;;;;8.65;4.95;;;;;;;4.77;84.52;99686.13;5053140;28;20073;-40
2022/01/11 09:10:40;;;;;;;7.45;4.95;;;;;;;4.71;84.60;99692.09;5053338;28;20028;-40
2022/01/11 09:13:06;;;;;;;8.13;5.32;;;;;;;4.51;85.25;99691.59;5053076;28;20029;-40
2022/01/11 09:15:32;;;;;;;8.02;4.72;;;;;;;4.69;86.13;99689.63;5053002;28;20051;-40
2022/01/11 09:17:58;;;;;;;6.90;4.10;;;;;;;4.58;85.27;99689.94;5053131;28;20024;-40
2022/01/11 09:20:23;;;;;;;7.88;4.97;;;;;;;4.69;85.45;99692.25;5053263;28;20432;-40
2022/01/11 09:22:49;;;;;;;6.70;4.38;;;;;;;4.64;85.40;99689.28;5053199;28;20021;-40
2022/01/11 09:25:15;;;;;;;7.95;4.72;;;;;;;4.31;86.88;99686.66;5051798;28;20024;-40
2022/01/11 09:27:41;;;;;;;10.15;5.07;;;;;;;4.33;87.08;99697.03;5052862;28;20024;-40
2022/01/11 09:30:08;;;;;;;9.00;5.35;;;;;;;4.37;87.23;99698.34;5052964;28;20400;-40
2022/01/11 09:32:34;;;;;;;8.98;5.20;;;;;;;4.44;86.38;99702.00;5052846;28;20024;-41
2022/01/11 09:35:00;;;;;;;9.85;5.25;;;;;;;4.58;85.82;99697.84;5052767;28;20028;-40
2022/01/11 09:37:26;;;;;;;9.13;5.35;;;;;;;4.67;85.07;99701.31;5052647;28;20025;-39
2022/01/11 09:39:51;;;;;;;9.07;5.00;;;;;;;4.57;85.51;99698.88;5052485;28;20021;-39
2022/01/11 09:42:17;;;;;;;8.38;4.78;;;;;;;4.74;84.26;99697.03;5053227;28;20044;-39
2022/01/11 09:44:42;;;;;;;6.72;4.10;;;;;;;4.56;84.50;99704.28;5052318;28;20412;-40
2022/01/11 09:47:09;;;;;;;7.88;4.72;;;;;;;4.72;84.58;99711.34;5051303;28;20028;-40
2022/01/11 09:49:35;;;;;;;7.68;4.63;;;;;;;4.78;84.02;99708.91;5052503;28;20044;-39
2022/01/11 09:52:06;;;;;;;8.77;5.20;;;;;;;4.82;84.50;99712.03;5052419;28;20424;-40
2022/01/11 09:54:32;;;;;;;9.55;5.40;;;;;;;4.62;84.93;99707.06;5051046;28;20025;-40
2022/01/11 09:56:58;;;;;;;8.65;4.95;;;;;;;4.42;85.49;99711.88;5052366;28;20025;-40
2022/01/11 09:59:23;;;;;;;9.32;5.55;;;;;;;4.43;85.34;99696.88;5052704;28;20082;-39
2022/01/11 10:01:49;;;;;;;9.23;5.55;;;;;;;4.32;86.68;99695.38;5052500;28;20024;-39
2022/01/11 10:04:16;;;;;;;8.75;5.78;;;;;;;4.74;85.36;99698.81;5052134;28;20040;-40
2022/01/11 10:06:42;;;;;;;8.07;5.07;;;;;;;4.50;85.69;99705.78;5051698;28;20169;-40
2022/01/11 10:09:16;;;;;;;8.63;5.15;;;;;;;4.43;86.45;99700.31;5051831;28;20405;-40
2022/01/11 10:11:44;;;;;;;8.20;5.07;;;;;;;4.31;85.91;99697.19;5051700;28;20033;-40
2022/01/11 10:14:36;;;;;;;8.05;5.10;;;;;;;4.55;85.96;99700.00;5052033;28;20094;-40
2022/01/11 10:17:05;;;;;;;10.73;5.30;;;;;;;4.60;85.00;99709.06;5049816;28;20079;-39
2022/01/11 10:19:31;;;;;;;7.28;4.47;;;;;;;4.61;84.20;99712.53;5051378;28;20029;-39
2022/01/11 10:21:56;;;;;;;9.00;5.50;;;;;;;4.76;84.21;99718.78;5051690;28;20052;-39
2022/01/11 10:24:35;;;;;;;8.30;5.10;;;;;;;4.74;83.02;99714.66;5051918;28;20063;-40
2022/01/11 10:27:05;;;;;;;8.48;5.22;;;;;;;4.60;84.80;99716.97;5051372;28;20044;-40
2022/01/11 10:29:40;;;;;;;9.13;4.97;;;;;;;4.57;84.86;99727.84;5051481;28;20068;-41
2022/01/11 10:32:26;;;;;;;7.85;4.47;;;;;;;4.46;83.60;99717.63;5051391;28;20025;-41
2022/01/11 10:34:53;;;;;;;6.05;3.75;;;;;;;4.61;80.35;99715.19;5051264;28;20033;-40
2022/01/11 10:37:30;;;;;;;6.07;3.90;;;;;;;4.65;80.55;99719.94;5051319;28;20025;-41
2022/01/11 10:40:12;;;;;;;6.15;3.60;;;;;;;4.57;80.77;99724.38;5051698;28;20031;-41
2022/01/11 10:42:45;;;;;;;8.63;3.97;;;;;;;4.45;82.01;99727.34;5051696;28;20029;-40
2022/01/11 10:45:15;;;;;;;7.72;4.55;;;;;;;4.58;82.12;99724.22;5050850;28;20041;-41
2022/01/11 10:47:42;;;;;;;7.03;4.22;;;;;;;4.42;82.36;99722.41;5051249;28;20469;-41
2022/01/11 10:50:13;;;;;;;7.88;4.60;;;;;;;4.50;83.12;99726.84;5049899;28;20492;-41
2022/01/11 10:52:38;;;;;;;7.03;4.28;;;;;;;4.44;83.01;99722.25;5051555;28;20386;-42
2022/01/11 10:55:05;;;;;;;9.23;4.13;;;;;;;4.18;83.76;99719.75;5050207;28;20032;-41
2022/01/11 10:57:38;;;;;;;7.40;4.38;;;;;;;4.34;83.54;99719.78;5049821;28;20028;-40
2022/01/11 11:00:09;;;;;;;5.43;3.28;;;;;;;4.13;83.34;99720.22;5051102;28;20021;-40
2022/01/11 11:02:35;;;;;;;7.53;3.38;;;;;;;4.28;81.36;99723.03;5051027;28;20036;-40
2022/01/11 11:05:31;;;;;;;5.88;3.70;;;;;;;4.32;81.47;99727.00;5050913;28;20029;-40
2022/01/11 11:08:01;;;;;;;7.00;3.50;;;;;;;4.28;82.37;99728.31;5041986;28;20114;-40
2022/01/11 11:10:38;;;;;;;7.63;3.90;;;;;;;4.15;83.04;99728.81;5050664;28;20145;-40
2022/01/11 11:13:05;;;;;;;5.97;3.30;;;;;;;4.11;82.95;99740.63;5050194;28;20062;-40
2022/01/11 11:15:38;;;;;;;5.85;3.15;;;;;;;4.08;82.36;99731.25;5050410;28;20089;-40
2022/01/11 11:18:04;;;;;;;5.65;3.33;;;;;;;4.14;82.50;99732.41;5051231;28;20441;-39
2022/01/11 11:20:31;;;;;;;5.65;3.45;;;;;;;4.10;82.92;99731.91;5050629;28;20043;-39
2022/01/11 11:22:57;;;;;;;8.10;3.80;;;;;;;4.36;82.46;99732.75;5050545;28;20013;-40
2022/01/11 11:25:23;;;;;;;5.45;3.72;;;;;;;3.86;84.34;99737.94;5050148;28;20156;-40
2022/01/11 11:27:48;;;;;;;5.65;3.70;;;;;;;4.03;83.58;99722.19;5050131;28;20021;-40
2022/01/11 11:30:14;;;;;;;6.60;3.85;;;;;;;3.81;84.10;99731.50;5049933;28;20075;-41
2022/01/11 11:32:40;;;;;;;8.10;4.32;;;;;;;3.88;85.52;99733.34;5047036;28;20017;-40
2022/01/11 11:35:06;;;;;;;6.18;3.55;;;;;;;3.85;85.01;99728.41;5032596;28;20036;-40